sensor_id;sensor_type;location;lat;lon;timestamp;temperature;humidity
8662;DHT22;29684;47.722;9.388;2023-03-01T00:02:20;0.80;99.90
8662;DHT22;29684;47.722;9.388;2023-03-01T00:05:04;0.80;99.90
8662;DHT22;29684;47.722;9.388;2023-03-01T00:07:52;0.90;99.90
8662;DHT22;29684;47.722;9.388;2023-03-01T00:10:37;0.70;99.90
8662;DHT22;29684;47.722;9.388;2023-03-01T00:13:21;0.90;99.90
8662;DHT22;29684;47.722;9.388;2023-03-01T00:16:07;0.90;99.90
8662;DHT22;29684;47.722;9.388;2023-03-01T00:18:51;0.80;99.90
8662;DHT22;29684;47.722;9.388;2023-03-01T00:21:37;0.90;99.90
8662;DHT22;29684;47.722;9.388;2023-03-01T00:24:21;0.70;99.90
8662;DHT22;29684;47.722;9.388;2023-03-01T00:27:05;0.90;99.90
8662;DHT22;29684;47.722;9.388;2023-03-01T00:29:50;0.90;99.90
8662;DHT22;29684;47.722;9.388;2023-03-01T00:32:34;1.00;99.90
8662;DHT22;29684;47.722;9.388;2023-03-01T00:35:18;1.30;99.90
8662;DHT22;29684;47.722;9.388;2023-03-01T00:38:02;1.10;99.90
8662;DHT22;29684;47.722;9.388;2023-03-01T00:40:48;1.50;99.90
8662;DHT22;29684;47.722;9.388;2023-03-01T00:43:32;0.90;99.90
8662;DHT22;29684;47.722;9.388;2023-03-01T00:46:22;0.90;99.90
8662;DHT22;29684;47.722;9.388;2023-03-01T00:49:07;1.00;99.90
8662;DHT22;29684;47.722;9.388;2023-03-01T00:51:51;1.00;99.90
8662;DHT22;29684;47.722;9.388;2023-03-01T00:54:35;1.10;99.90
8662;DHT22;29684;47.722;9.388;2023-03-01T00:57:19;0.90;99.90
8662;DHT22;29684;47.722;9.388;2023-03-01T01:00:05;0.80;99.90
8662;DHT22;29684;47.722;9.388;2023-03-01T01:02:50;1.00;99.90
8662;DHT22;29684;47.722;9.388;2023-03-01T01:05:35;0.90;99.90
8662;DHT22;29684;47.722;9.388;2023-03-01T01:08:20;1.00;99.90
8662;DHT22;29684;47.722;9.388;2023-03-01T01:11:04;1.20;99.90
8662;DHT22;29684;47.722;9.388;2023-03-01T01:13:49;1.10;99.90
8662;DHT22;29684;47.722;9.388;2023-03-01T01:16:33;1.60;99.90
8662;DHT22;29684;47.722;9.388;2023-03-01T01:19:18;1.30;99.90
8662;DHT22;29684;47.722;9.388;2023-03-01T01:22:02;1.20;99.90
8662;DHT22;29684;47.722;9.388;2023-03-01T01:24:47;1.10;99.90
8662;DHT22;29684;47.722;9.388;2023-03-01T01:27:31;1.10;99.90
8662;DHT22;29684;47.722;9.388;2023-03-01T01:30:15;1.00;99.90
8662;DHT22;29684;47.722;9.388;2023-03-01T01:33:00;1.10;99.90
8662;DHT22;29684;47.722;9.388;2023-03-01T01:35:45;1.20;99.90
8662;DHT22;29684;47.722;9.388;2023-03-01T01:38:29;1.20;99.90
8662;DHT22;29684;47.722;9.388;2023-03-01T01:41:14;1.10;99.90
8662;DHT22;29684;47.722;9.388;2023-03-01T01:44:28;1.20;99.90
8662;DHT22;29684;47.722;9.388;2023-03-01T01:47:16;1.20;99.90
8662;DHT22;29684;47.722;9.388;2023-03-01T01:50:02;1.10;99.90
8662;DHT22;29684;47.722;9.388;2023-03-01T01:52:48;1.10;99.90
8662;DHT22;29684;47.722;9.388;2023-03-01T01:55:36;0.90;99.90
8662;DHT22;29684;47.722;9.388;2023-03-01T01:58:21;0.90;99.90
8662;DHT22;29684;47.722;9.388;2023-03-01T02:01:06;1.00;99.90
8662;DHT22;29684;47.722;9.388;2023-03-01T02:03:50;1.40;99.90
8662;DHT22;29684;47.722;9.388;2023-03-01T02:06:43;1.10;99.90
8662;DHT22;29684;47.722;9.388;2023-03-01T02:09:30;1.10;99.90
8662;DHT22;29684;47.722;9.388;2023-03-01T02:12:21;1.10;99.90
8662;DHT22;29684;47.722;9.388;2023-03-01T02:15:07;1.20;99.90
8662;DHT22;29684;47.722;9.388;2023-03-01T02:17:52;1.20;99.90
8662;DHT22;29684;47.722;9.388;2023-03-01T02:31:01;1.20;99.90
8662;DHT22;29684;47.722;9.388;2023-03-01T02:34:06;1.20;99.90
8662;DHT22;29684;47.722;9.388;2023-03-01T02:37:29;1.40;99.90
8662;DHT22;29684;47.722;9.388;2023-03-01T02:40:12;1.10;99.90
8662;DHT22;29684;47.722;9.388;2023-03-01T02:42:58;1.20;99.90
8662;DHT22;29684;47.722;9.388;2023-03-01T02:45:51;1.20;99.90
8662;DHT22;29684;47.722;9.388;2023-03-01T02:48:45;1.20;99.90
8662;DHT22;29684;47.722;9.388;2023-03-01T02:54:44;1.40;99.90
8662;DHT22;29684;47.722;9.388;2023-03-01T02:57:28;1.90;99.90
8662;DHT22;29684;47.722;9.388;2023-03-01T03:00:20;1.20;99.90
8662;DHT22;29684;47.722;9.388;2023-03-01T03:03:06;1.20;99.90
8662;DHT22;29684;47.722;9.388;2023-03-01T03:05:50;1.20;99.90
8662;DHT22;29684;47.722;9.388;2023-03-01T03:08:35;1.20;99.90
8662;DHT22;29684;47.722;9.388;2023-03-01T03:11:19;1.20;99.90
8662;DHT22;29684;47.722;9.388;2023-03-01T03:14:05;1.30;99.90
8662;DHT22;29684;47.722;9.388;2023-03-01T03:16:56;2.30;99.90
8662;DHT22;29684;47.722;9.388;2023-03-01T03:19:40;1.20;99.90
8662;DHT22;29684;47.722;9.388;2023-03-01T03:22:24;1.20;99.90
8662;DHT22;29684;47.722;9.388;2023-03-01T03:25:08;1.10;99.90
8662;DHT22;29684;47.722;9.388;2023-03-01T03:27:55;1.20;99.90
8662;DHT22;29684;47.722;9.388;2023-03-01T03:30:43;1.20;99.90
8662;DHT22;29684;47.722;9.388;2023-03-01T03:33:27;1.10;99.90
8662;DHT22;29684;47.722;9.388;2023-03-01T03:36:23;1.10;99.90
8662;DHT22;29684;47.722;9.388;2023-03-01T03:39:07;1.20;99.90
8662;DHT22;29684;47.722;9.388;2023-03-01T03:41:51;1.10;99.90
8662;DHT22;29684;47.722;9.388;2023-03-01T03:44:36;1.10;99.90
8662;DHT22;29684;47.722;9.388;2023-03-01T03:47:21;1.20;99.90
8662;DHT22;29684;47.722;9.388;2023-03-01T03:50:05;1.10;99.90
8662;DHT22;29684;47.722;9.388;2023-03-01T03:52:50;1.00;99.90
8662;DHT22;29684;47.722;9.388;2023-03-01T03:55:34;1.40;99.90
8662;DHT22;29684;47.722;9.388;2023-03-01T03:58:21;1.50;99.90
8662;DHT22;29684;47.722;9.388;2023-03-01T04:01:06;1.00;99.90
8662;DHT22;29684;47.722;9.388;2023-03-01T04:03:50;1.00;99.90
8662;DHT22;29684;47.722;9.388;2023-03-01T04:06:38;1.00;99.90
8662;DHT22;29684;47.722;9.388;2023-03-01T04:09:22;1.00;99.90
8662;DHT22;29684;47.722;9.388;2023-03-01T04:12:06;1.00;99.90
8662;DHT22;29684;47.722;9.388;2023-03-01T04:14:50;1.30;99.90
8662;DHT22;29684;47.722;9.388;2023-03-01T04:17:35;1.00;99.90
8662;DHT22;29684;47.722;9.388;2023-03-01T04:20:22;1.80;99.90
8662;DHT22;29684;47.722;9.388;2023-03-01T04:23:10;0.90;99.90
8662;DHT22;29684;47.722;9.388;2023-03-01T04:25:58;0.90;99.90
8662;DHT22;29684;47.722;9.388;2023-03-01T04:28:43;0.90;99.90
8662;DHT22;29684;47.722;9.388;2023-03-01T04:31:29;0.90;99.90
8662;DHT22;29684;47.722;9.388;2023-03-01T04:34:13;1.00;99.90
8662;DHT22;29684;47.722;9.388;2023-03-01T04:36:58;0.90;99.90
8662;DHT22;29684;47.722;9.388;2023-03-01T04:39:42;1.00;99.90
8662;DHT22;29684;47.722;9.388;2023-03-01T04:42:30;0.90;99.90
8662;DHT22;29684;47.722;9.388;2023-03-01T04:45:14;0.80;99.90
8662;DHT22;29684;47.722;9.388;2023-03-01T04:47:58;1.10;99.90
8662;DHT22;29684;47.722;9.388;2023-03-01T04:50:43;1.50;99.90
8662;DHT22;29684;47.722;9.388;2023-03-01T04:53:28;0.70;99.90
8662;DHT22;29684;47.722;9.388;2023-03-01T04:56:13;1.40;99.90
8662;DHT22;29684;47.722;9.388;2023-03-01T04:58:58;1.10;99.90
8662;DHT22;29684;47.722;9.388;2023-03-01T05:01:42;1.00;99.90
8662;DHT22;29684;47.722;9.388;2023-03-01T05:04:26;1.00;99.90
8662;DHT22;29684;47.722;9.388;2023-03-01T05:07:11;1.10;99.90
8662;DHT22;29684;47.722;9.388;2023-03-01T05:09:56;0.90;99.90
8662;DHT22;29684;47.722;9.388;2023-03-01T05:12:40;0.80;99.90
8662;DHT22;29684;47.722;9.388;2023-03-01T05:15:26;1.10;99.90
8662;DHT22;29684;47.722;9.388;2023-03-01T05:18:11;1.10;99.90
8662;DHT22;29684;47.722;9.388;2023-03-01T05:21:05;0.90;99.90
8662;DHT22;29684;47.722;9.388;2023-03-01T05:23:50;0.90;99.90
8662;DHT22;29684;47.722;9.388;2023-03-01T05:26:35;1.40;99.90
8662;DHT22;29684;47.722;9.388;2023-03-01T05:29:25;1.20;99.90
8662;DHT22;29684;47.722;9.388;2023-03-01T05:32:10;1.90;99.90
8662;DHT22;29684;47.722;9.388;2023-03-01T05:34:59;0.60;99.90
8662;DHT22;29684;47.722;9.388;2023-03-01T05:37:46;1.30;99.90
8662;DHT22;29684;47.722;9.388;2023-03-01T05:40:33;1.30;99.90
8662;DHT22;29684;47.722;9.388;2023-03-01T05:43:18;0.90;99.90
8662;DHT22;29684;47.722;9.388;2023-03-01T05:46:02;1.10;99.90
8662;DHT22;29684;47.722;9.388;2023-03-01T05:48:46;1.10;99.90
8662;DHT22;29684;47.722;9.388;2023-03-01T05:51:32;1.10;99.90
8662;DHT22;29684;47.722;9.388;2023-03-01T05:54:19;0.90;99.90
8662;DHT22;29684;47.722;9.388;2023-03-01T05:57:03;1.00;99.90
8662;DHT22;29684;47.722;9.388;2023-03-01T05:59:47;0.70;99.90
8662;DHT22;29684;47.722;9.388;2023-03-01T06:02:31;1.10;99.90
8662;DHT22;29684;47.722;9.388;2023-03-01T06:05:15;1.50;99.90
8662;DHT22;29684;47.722;9.388;2023-03-01T06:08:01;1.20;99.90
8662;DHT22;29684;47.722;9.388;2023-03-01T06:10:46;1.10;99.90
8662;DHT22;29684;47.722;9.388;2023-03-01T06:13:31;1.30;99.90
8662;DHT22;29684;47.722;9.388;2023-03-01T06:16:15;1.30;99.90
8662;DHT22;29684;47.722;9.388;2023-03-01T06:18:59;1.40;99.90
8662;DHT22;29684;47.722;9.388;2023-03-01T06:21:43;1.20;99.90
8662;DHT22;29684;47.722;9.388;2023-03-01T06:24:27;1.40;99.90
8662;DHT22;29684;47.722;9.388;2023-03-01T06:27:13;1.20;99.90
8662;DHT22;29684;47.722;9.388;2023-03-01T06:29:57;1.30;99.90
8662;DHT22;29684;47.722;9.388;2023-03-01T06:32:41;1.30;99.90
8662;DHT22;29684;47.722;9.388;2023-03-01T06:35:26;1.30;99.90
8662;DHT22;29684;47.722;9.388;2023-03-01T06:38:13;1.30;99.90
8662;DHT22;29684;47.722;9.388;2023-03-01T06:40:59;1.30;99.90
8662;DHT22;29684;47.722;9.388;2023-03-01T06:43:43;1.40;99.90
8662;DHT22;29684;47.722;9.388;2023-03-01T06:46:27;1.40;99.90
8662;DHT22;29684;47.722;9.388;2023-03-01T06:49:11;1.40;99.90
8662;DHT22;29684;47.722;9.388;2023-03-01T06:51:56;1.40;99.90
8662;DHT22;29684;47.722;9.388;2023-03-01T06:54:41;1.20;99.90
8662;DHT22;29684;47.722;9.388;2023-03-01T06:57:25;1.30;99.90
8662;DHT22;29684;47.722;9.388;2023-03-01T07:00:10;1.30;99.90
8662;DHT22;29684;47.722;9.388;2023-03-01T07:02:58;1.30;99.90
8662;DHT22;29684;47.722;9.388;2023-03-01T07:05:43;1.40;99.90
8662;DHT22;29684;47.722;9.388;2023-03-01T07:08:28;1.40;99.90
8662;DHT22;29684;47.722;9.388;2023-03-01T07:11:12;1.60;99.90
8662;DHT22;29684;47.722;9.388;2023-03-01T07:13:57;2.10;99.90
8662;DHT22;29684;47.722;9.388;2023-03-01T07:16:42;1.80;99.90
8662;DHT22;29684;47.722;9.388;2023-03-01T07:19:26;1.50;99.90
8662;DHT22;29684;47.722;9.388;2023-03-01T07:22:11;1.40;99.90
8662;DHT22;29684;47.722;9.388;2023-03-01T07:24:55;1.30;99.90
8662;DHT22;29684;47.722;9.388;2023-03-01T07:27:39;1.40;99.90
8662;DHT22;29684;47.722;9.388;2023-03-01T07:30:24;1.40;99.90
8662;DHT22;29684;47.722;9.388;2023-03-01T07:33:12;1.40;99.90
8662;DHT22;29684;47.722;9.388;2023-03-01T07:36:02;1.40;99.90
8662;DHT22;29684;47.722;9.388;2023-03-01T07:38:46;1.30;99.90
8662;DHT22;29684;47.722;9.388;2023-03-01T07:41:31;1.30;99.90
8662;DHT22;29684;47.722;9.388;2023-03-01T07:44:15;1.90;99.90
8662;DHT22;29684;47.722;9.388;2023-03-01T07:47:01;1.40;99.90
8662;DHT22;29684;47.722;9.388;2023-03-01T07:49:45;1.50;99.90
8662;DHT22;29684;47.722;9.388;2023-03-01T07:52:30;1.50;99.90
8662;DHT22;29684;47.722;9.388;2023-03-01T07:55:15;1.50;99.90
8662;DHT22;29684;47.722;9.388;2023-03-01T07:58:00;1.40;99.90
8662;DHT22;29684;47.722;9.388;2023-03-01T08:00:44;1.90;99.90
8662;DHT22;29684;47.722;9.388;2023-03-01T08:03:28;1.50;99.90
8662;DHT22;29684;47.722;9.388;2023-03-01T08:06:14;1.80;99.90
8662;DHT22;29684;47.722;9.388;2023-03-01T08:08:59;1.50;99.90
8662;DHT22;29684;47.722;9.388;2023-03-01T08:11:43;1.50;99.90
8662;DHT22;29684;47.722;9.388;2023-03-01T08:14:27;1.50;99.90
8662;DHT22;29684;47.722;9.388;2023-03-01T08:17:14;2.00;99.90
8662;DHT22;29684;47.722;9.388;2023-03-01T08:19:58;1.60;99.90
8662;DHT22;29684;47.722;9.388;2023-03-01T08:22:42;1.60;99.90
8662;DHT22;29684;47.722;9.388;2023-03-01T08:25:26;1.70;99.90
8662;DHT22;29684;47.722;9.388;2023-03-01T08:28:10;1.80;99.90
8662;DHT22;29684;47.722;9.388;2023-03-01T08:30:54;1.90;99.90
8662;DHT22;29684;47.722;9.388;2023-03-01T08:33:39;1.70;99.90
8662;DHT22;29684;47.722;9.388;2023-03-01T08:36:24;1.70;99.90
8662;DHT22;29684;47.722;9.388;2023-03-01T08:39:11;2.20;99.90
8662;DHT22;29684;47.722;9.388;2023-03-01T08:41:55;1.80;99.90
8662;DHT22;29684;47.722;9.388;2023-03-01T08:44:40;1.80;99.90
8662;DHT22;29684;47.722;9.388;2023-03-01T08:47:24;1.80;99.90
8662;DHT22;29684;47.722;9.388;2023-03-01T08:50:10;2.10;99.90
8662;DHT22;29684;47.722;9.388;2023-03-01T08:52:54;1.80;99.90
8662;DHT22;29684;47.722;9.388;2023-03-01T08:55:38;1.90;99.90
8662;DHT22;29684;47.722;9.388;2023-03-01T08:58:22;1.80;99.90
8662;DHT22;29684;47.722;9.388;2023-03-01T09:01:08;2.30;99.90
8662;DHT22;29684;47.722;9.388;2023-03-01T09:03:53;2.00;99.90
8662;DHT22;29684;47.722;9.388;2023-03-01T09:06:37;2.00;99.90
8662;DHT22;29684;47.722;9.388;2023-03-01T09:09:21;2.20;99.90
8662;DHT22;29684;47.722;9.388;2023-03-01T09:12:05;2.10;99.90
8662;DHT22;29684;47.722;9.388;2023-03-01T09:14:50;1.80;99.90
8662;DHT22;29684;47.722;9.388;2023-03-01T09:17:34;2.10;99.90
8662;DHT22;29684;47.722;9.388;2023-03-01T09:20:18;2.40;99.90
8662;DHT22;29684;47.722;9.388;2023-03-01T09:23:02;2.20;99.90
8662;DHT22;29684;47.722;9.388;2023-03-01T09:25:47;1.80;99.90
8662;DHT22;29684;47.722;9.388;2023-03-01T09:28:31;1.80;99.90
8662;DHT22;29684;47.722;9.388;2023-03-01T09:31:17;1.90;99.90
8662;DHT22;29684;47.722;9.388;2023-03-01T09:34:02;2.30;99.90
8662;DHT22;29684;47.722;9.388;2023-03-01T09:36:46;2.00;99.90
8662;DHT22;29684;47.722;9.388;2023-03-01T09:39:30;2.10;99.90
8662;DHT22;29684;47.722;9.388;2023-03-01T09:42:16;2.00;99.90
8662;DHT22;29684;47.722;9.388;2023-03-01T09:45:06;2.00;99.90
8662;DHT22;29684;47.722;9.388;2023-03-01T09:47:55;2.00;99.90
8662;DHT22;29684;47.722;9.388;2023-03-01T09:50:42;2.40;99.90
8662;DHT22;29684;47.722;9.388;2023-03-01T09:53:32;2.50;99.90
8662;DHT22;29684;47.722;9.388;2023-03-01T09:56:30;2.10;99.90
8662;DHT22;29684;47.722;9.388;2023-03-01T09:59:40;2.50;99.90
8662;DHT22;29684;47.722;9.388;2023-03-01T10:11:32;2.30;99.90
8662;DHT22;29684;47.722;9.388;2023-03-01T10:17:46;2.20;99.90
8662;DHT22;29684;47.722;9.388;2023-03-01T10:20:56;2.70;99.90
8662;DHT22;29684;47.722;9.388;2023-03-01T10:23:42;2.40;99.90
8662;DHT22;29684;47.722;9.388;2023-03-01T10:26:36;2.60;99.90
8662;DHT22;29684;47.722;9.388;2023-03-01T10:29:39;2.40;99.90
8662;DHT22;29684;47.722;9.388;2023-03-01T10:32:27;2.40;99.90
8662;DHT22;29684;47.722;9.388;2023-03-01T10:38:07;2.20;99.90
8662;DHT22;29684;47.722;9.388;2023-03-01T10:41:00;2.50;99.90
8662;DHT22;29684;47.722;9.388;2023-03-01T10:46:37;2.70;99.90
8662;DHT22;29684;47.722;9.388;2023-03-01T10:49:22;2.60;99.90
8662;DHT22;29684;47.722;9.388;2023-03-01T10:52:35;2.50;99.90
8662;DHT22;29684;47.722;9.388;2023-03-01T10:55:36;2.50;99.90
8662;DHT22;29684;47.722;9.388;2023-03-01T10:58:22;2.40;99.90
8662;DHT22;29684;47.722;9.388;2023-03-01T11:01:30;2.60;99.90
8662;DHT22;29684;47.722;9.388;2023-03-01T11:04:16;2.80;99.90
8662;DHT22;29684;47.722;9.388;2023-03-01T11:07:02;2.60;99.90
8662;DHT22;29684;47.722;9.388;2023-03-01T11:09:46;2.60;99.90
8662;DHT22;29684;47.722;9.388;2023-03-01T11:12:30;2.70;99.90
8662;DHT22;29684;47.722;9.388;2023-03-01T11:15:27;2.60;99.90
8662;DHT22;29684;47.722;9.388;2023-03-01T11:18:22;2.60;99.90
8662;DHT22;29684;47.722;9.388;2023-03-01T11:21:09;2.60;99.90
8662;DHT22;29684;47.722;9.388;2023-03-01T11:23:54;2.60;99.90
8662;DHT22;29684;47.722;9.388;2023-03-01T11:26:45;2.40;99.90
8662;DHT22;29684;47.722;9.388;2023-03-01T11:29:37;2.70;99.90
8662;DHT22;29684;47.722;9.388;2023-03-01T11:32:29;2.40;99.90
8662;DHT22;29684;47.722;9.388;2023-03-01T11:35:25;2.40;99.90
8662;DHT22;29684;47.722;9.388;2023-03-01T11:38:25;2.50;99.90
8662;DHT22;29684;47.722;9.388;2023-03-01T11:41:18;2.70;99.90
8662;DHT22;29684;47.722;9.388;2023-03-01T11:44:12;2.80;99.90
8662;DHT22;29684;47.722;9.388;2023-03-01T11:47:03;2.50;99.90
8662;DHT22;29684;47.722;9.388;2023-03-01T11:59:20;2.50;99.90
8662;DHT22;29684;47.722;9.388;2023-03-01T12:30:14;2.70;99.90
8662;DHT22;29684;47.722;9.388;2023-03-01T12:48:30;2.60;99.90
8662;DHT22;29684;47.722;9.388;2023-03-01T12:51:22;2.90;99.90
8662;DHT22;29684;47.722;9.388;2023-03-01T12:54:19;3.60;99.90
8662;DHT22;29684;47.722;9.388;2023-03-01T12:57:53;2.90;99.90
8662;DHT22;29684;47.722;9.388;2023-03-01T13:03:55;3.10;99.90
8662;DHT22;29684;47.722;9.388;2023-03-01T13:10:02;3.00;99.90
8662;DHT22;29684;47.722;9.388;2023-03-01T13:15:40;3.20;99.90
8662;DHT22;29684;47.722;9.388;2023-03-01T13:18:28;3.70;99.90
8662;DHT22;29684;47.722;9.388;2023-03-01T13:21:30;3.30;99.90
8662;DHT22;29684;47.722;9.388;2023-03-01T13:30:02;3.00;99.90
8662;DHT22;29684;47.722;9.388;2023-03-01T13:32:49;3.40;99.90
8662;DHT22;29684;47.722;9.388;2023-03-01T13:35:44;3.40;99.90
8662;DHT22;29684;47.722;9.388;2023-03-01T13:44:35;3.70;99.90
8662;DHT22;29684;47.722;9.388;2023-03-01T13:47:20;4.00;99.90
8662;DHT22;29684;47.722;9.388;2023-03-01T13:50:06;3.40;99.90
8662;DHT22;29684;47.722;9.388;2023-03-01T13:52:55;3.40;99.90
8662;DHT22;29684;47.722;9.388;2023-03-01T13:55:56;3.80;99.90
8662;DHT22;29684;47.722;9.388;2023-03-01T13:58:51;3.40;99.90
8662;DHT22;29684;47.722;9.388;2023-03-01T14:01:37;3.40;99.90
8662;DHT22;29684;47.722;9.388;2023-03-01T14:04:32;3.50;99.90
8662;DHT22;29684;47.722;9.388;2023-03-01T14:07:21;3.50;99.90
8662;DHT22;29684;47.722;9.388;2023-03-01T14:10:12;3.60;99.90
8662;DHT22;29684;47.722;9.388;2023-03-01T14:25:31;3.40;99.90
8662;DHT22;29684;47.722;9.388;2023-03-01T14:28:28;3.50;99.90
8662;DHT22;29684;47.722;9.388;2023-03-01T14:34:23;3.00;99.90
8662;DHT22;29684;47.722;9.388;2023-03-01T14:37:23;3.40;99.90
8662;DHT22;29684;47.722;9.388;2023-03-01T14:40:24;3.50;99.90
8662;DHT22;29684;47.722;9.388;2023-03-01T14:43:11;4.40;99.90
8662;DHT22;29684;47.722;9.388;2023-03-01T14:45:56;3.70;99.90
8662;DHT22;29684;47.722;9.388;2023-03-01T14:48:41;3.50;99.90
8662;DHT22;29684;47.722;9.388;2023-03-01T14:51:25;3.20;99.90
8662;DHT22;29684;47.722;9.388;2023-03-01T14:57:26;3.20;99.90
8662;DHT22;29684;47.722;9.388;2023-03-01T15:00:18;3.30;99.90
8662;DHT22;29684;47.722;9.388;2023-03-01T15:03:08;2.90;99.90
8662;DHT22;29684;47.722;9.388;2023-03-01T15:05:58;3.00;99.90
8662;DHT22;29684;47.722;9.388;2023-03-01T15:08:49;3.40;99.90
8662;DHT22;29684;47.722;9.388;2023-03-01T15:11:34;3.40;99.90
8662;DHT22;29684;47.722;9.388;2023-03-01T15:14:39;3.10;99.90
8662;DHT22;29684;47.722;9.388;2023-03-01T15:17:32;3.20;99.90
8662;DHT22;29684;47.722;9.388;2023-03-01T15:20:19;3.20;99.90
8662;DHT22;29684;47.722;9.388;2023-03-01T15:23:29;3.90;99.90
8662;DHT22;29684;47.722;9.388;2023-03-01T15:26:26;4.30;99.90
8662;DHT22;29684;47.722;9.388;2023-03-01T15:29:17;4.40;99.90
8662;DHT22;29684;47.722;9.388;2023-03-01T15:32:05;4.20;99.90
8662;DHT22;29684;47.722;9.388;2023-03-01T15:34:50;4.20;99.90
8662;DHT22;29684;47.722;9.388;2023-03-01T15:37:39;4.10;99.90
8662;DHT22;29684;47.722;9.388;2023-03-01T15:40:27;4.50;99.90
8662;DHT22;29684;47.722;9.388;2023-03-01T15:43:45;5.00;99.90
8662;DHT22;29684;47.722;9.388;2023-03-01T15:46:31;5.70;99.90
8662;DHT22;29684;47.722;9.388;2023-03-01T15:49:39;4.80;99.90
8662;DHT22;29684;47.722;9.388;2023-03-01T15:52:32;4.80;99.90
8662;DHT22;29684;47.722;9.388;2023-03-01T15:55:28;4.80;99.90
8662;DHT22;29684;47.722;9.388;2023-03-01T15:58:19;4.50;99.90
8662;DHT22;29684;47.722;9.388;2023-03-01T16:01:13;4.20;99.90
8662;DHT22;29684;47.722;9.388;2023-03-01T16:03:57;5.30;99.90
8662;DHT22;29684;47.722;9.388;2023-03-01T16:06:42;4.00;99.90
8662;DHT22;29684;47.722;9.388;2023-03-01T16:09:26;4.00;99.90
8662;DHT22;29684;47.722;9.388;2023-03-01T16:12:14;4.00;99.90
8662;DHT22;29684;47.722;9.388;2023-03-01T16:14:58;3.80;99.90
8662;DHT22;29684;47.722;9.388;2023-03-01T16:17:43;3.60;99.90
8662;DHT22;29684;47.722;9.388;2023-03-01T16:20:28;3.50;99.90
8662;DHT22;29684;47.722;9.388;2023-03-01T16:23:14;3.30;99.90
8662;DHT22;29684;47.722;9.388;2023-03-01T16:25:59;3.30;99.90
8662;DHT22;29684;47.722;9.388;2023-03-01T16:28:45;3.40;99.90
8662;DHT22;29684;47.722;9.388;2023-03-01T16:31:30;3.30;99.90
8662;DHT22;29684;47.722;9.388;2023-03-01T16:34:14;3.00;99.90
8662;DHT22;29684;47.722;9.388;2023-03-01T16:36:58;2.90;99.90
8662;DHT22;29684;47.722;9.388;2023-03-01T16:39:42;2.80;99.90
8662;DHT22;29684;47.722;9.388;2023-03-01T16:42:27;2.80;99.90
8662;DHT22;29684;47.722;9.388;2023-03-01T16:45:11;2.60;99.90
8662;DHT22;29684;47.722;9.388;2023-03-01T16:47:55;2.50;99.90
8662;DHT22;29684;47.722;9.388;2023-03-01T16:50:39;2.30;99.90
8662;DHT22;29684;47.722;9.388;2023-03-01T16:53:24;2.30;99.90
8662;DHT22;29684;47.722;9.388;2023-03-01T16:56:11;2.20;99.90
8662;DHT22;29684;47.722;9.388;2023-03-01T16:58:56;2.40;99.90
8662;DHT22;29684;47.722;9.388;2023-03-01T17:01:40;2.10;99.90
8662;DHT22;29684;47.722;9.388;2023-03-01T17:04:24;2.10;99.90
8662;DHT22;29684;47.722;9.388;2023-03-01T17:07:09;2.10;99.90
8662;DHT22;29684;47.722;9.388;2023-03-01T17:09:53;2.10;99.90
8662;DHT22;29684;47.722;9.388;2023-03-01T17:12:37;2.10;99.90
8662;DHT22;29684;47.722;9.388;2023-03-01T17:15:21;2.10;99.90
8662;DHT22;29684;47.722;9.388;2023-03-01T17:18:08;2.10;99.90
8662;DHT22;29684;47.722;9.388;2023-03-01T17:20:52;2.00;99.90
8662;DHT22;29684;47.722;9.388;2023-03-01T17:23:38;2.00;99.90
8662;DHT22;29684;47.722;9.388;2023-03-01T17:26:23;2.10;99.90
8662;DHT22;29684;47.722;9.388;2023-03-01T17:29:07;2.10;99.90
8662;DHT22;29684;47.722;9.388;2023-03-01T17:31:51;2.50;99.90
8662;DHT22;29684;47.722;9.388;2023-03-01T17:34:37;2.10;99.90
8662;DHT22;29684;47.722;9.388;2023-03-01T17:37:22;2.40;99.90
8662;DHT22;29684;47.722;9.388;2023-03-01T17:40:06;2.10;99.90
8662;DHT22;29684;47.722;9.388;2023-03-01T17:42:50;2.30;99.90
8662;DHT22;29684;47.722;9.388;2023-03-01T17:45:38;2.30;99.90
8662;DHT22;29684;47.722;9.388;2023-03-01T17:48:23;2.20;99.90
8662;DHT22;29684;47.722;9.388;2023-03-01T17:51:08;2.30;99.90
8662;DHT22;29684;47.722;9.388;2023-03-01T17:53:54;2.40;99.90
8662;DHT22;29684;47.722;9.388;2023-03-01T17:56:38;3.10;99.90
8662;DHT22;29684;47.722;9.388;2023-03-01T17:59:24;2.30;99.90
8662;DHT22;29684;47.722;9.388;2023-03-01T18:02:14;2.40;99.90
8662;DHT22;29684;47.722;9.388;2023-03-01T18:04:58;2.30;99.90
8662;DHT22;29684;47.722;9.388;2023-03-01T18:07:42;2.20;99.90
8662;DHT22;29684;47.722;9.388;2023-03-01T18:10:26;2.10;99.90
8662;DHT22;29684;47.722;9.388;2023-03-01T18:13:10;2.20;99.90
8662;DHT22;29684;47.722;9.388;2023-03-01T18:15:58;2.20;99.90
8662;DHT22;29684;47.722;9.388;2023-03-01T18:18:45;2.00;99.90
8662;DHT22;29684;47.722;9.388;2023-03-01T18:21:29;2.00;99.90
8662;DHT22;29684;47.722;9.388;2023-03-01T18:24:14;2.80;99.90
8662;DHT22;29684;47.722;9.388;2023-03-01T18:26:58;2.30;99.90
8662;DHT22;29684;47.722;9.388;2023-03-01T18:29:42;2.40;99.90
8662;DHT22;29684;47.722;9.388;2023-03-01T18:32:26;2.30;99.90
8662;DHT22;29684;47.722;9.388;2023-03-01T18:35:11;2.20;99.90
8662;DHT22;29684;47.722;9.388;2023-03-01T18:37:56;2.00;99.90
8662;DHT22;29684;47.722;9.388;2023-03-01T18:40:42;2.10;99.90
8662;DHT22;29684;47.722;9.388;2023-03-01T18:43:26;2.80;99.90
8662;DHT22;29684;47.722;9.388;2023-03-01T18:46:11;2.10;99.90
8662;DHT22;29684;47.722;9.388;2023-03-01T18:48:55;1.90;99.90
8662;DHT22;29684;47.722;9.388;2023-03-01T18:51:40;2.70;99.90
8662;DHT22;29684;47.722;9.388;2023-03-01T18:54:24;1.80;99.90
8662;DHT22;29684;47.722;9.388;2023-03-01T18:57:09;1.60;99.90
8662;DHT22;29684;47.722;9.388;2023-03-01T18:59:53;1.70;99.90
8662;DHT22;29684;47.722;9.388;2023-03-01T19:02:37;1.80;99.90
8662;DHT22;29684;47.722;9.388;2023-03-01T19:05:21;1.70;99.90
8662;DHT22;29684;47.722;9.388;2023-03-01T19:08:06;1.80;99.90
8662;DHT22;29684;47.722;9.388;2023-03-01T19:10:58;1.50;99.90
8662;DHT22;29684;47.722;9.388;2023-03-01T19:13:43;1.60;99.90
8662;DHT22;29684;47.722;9.388;2023-03-01T19:16:29;1.50;99.90
8662;DHT22;29684;47.722;9.388;2023-03-01T19:19:14;1.40;99.90
8662;DHT22;29684;47.722;9.388;2023-03-01T19:21:58;2.10;99.90
8662;DHT22;29684;47.722;9.388;2023-03-01T19:24:42;1.50;99.90
8662;DHT22;29684;47.722;9.388;2023-03-01T19:27:26;1.50;99.90
8662;DHT22;29684;47.722;9.388;2023-03-01T19:30:11;1.90;99.90
8662;DHT22;29684;47.722;9.388;2023-03-01T19:32:55;1.60;99.90
8662;DHT22;29684;47.722;9.388;2023-03-01T19:35:40;1.50;99.90
8662;DHT22;29684;47.722;9.388;2023-03-01T19:38:25;1.70;99.90
8662;DHT22;29684;47.722;9.388;2023-03-01T19:41:12;1.70;99.90
8662;DHT22;29684;47.722;9.388;2023-03-01T19:43:57;1.80;99.90
8662;DHT22;29684;47.722;9.388;2023-03-01T19:46:41;1.70;99.90
8662;DHT22;29684;47.722;9.388;2023-03-01T19:49:26;1.90;99.90
8662;DHT22;29684;47.722;9.388;2023-03-01T19:52:12;1.70;99.90
8662;DHT22;29684;47.722;9.388;2023-03-01T19:54:56;1.70;99.90
8662;DHT22;29684;47.722;9.388;2023-03-01T19:57:40;1.90;99.90
8662;DHT22;29684;47.722;9.388;2023-03-01T20:00:25;1.70;99.90
8662;DHT22;29684;47.722;9.388;2023-03-01T20:03:09;1.80;99.90
8662;DHT22;29684;47.722;9.388;2023-03-01T20:05:53;1.80;99.90
8662;DHT22;29684;47.722;9.388;2023-03-01T20:08:37;1.70;99.90
8662;DHT22;29684;47.722;9.388;2023-03-01T20:11:22;1.40;99.90
8662;DHT22;29684;47.722;9.388;2023-03-01T20:14:06;1.90;99.90
8662;DHT22;29684;47.722;9.388;2023-03-01T20:16:53;1.70;99.90